createdAt,value
2023-02-11T00:05:37.975Z,29.52
2023-02-11T00:10:34.389Z,31.30
2023-02-11T00:15:30.683Z,31.17
2023-02-11T00:20:27.104Z,30.05
2023-02-11T00:25:23.401Z,31.98
2023-02-11T00:30:19.877Z,29.80
2023-02-11T00:35:16.441Z,30.48
2023-02-11T00:40:12.933Z,30.52
2023-02-11T00:45:09.962Z,30.67
2023-02-11T00:50:07.541Z,28.70
2023-02-11T00:55:04.083Z,29.58
2023-02-11T01:00:00.426Z,30.80
2023-02-11T01:04:56.792Z,30.30
2023-02-11T01:09:53.784Z,31.77
2023-02-11T01:14:50.237Z,33.65
2023-02-11T01:19:46.637Z,32.72
2023-02-11T01:24:43.018Z,35.03
2023-02-11T01:29:39.318Z,35.53
2023-02-11T01:34:35.659Z,36.30
2023-02-11T01:39:35.193Z,36.80
2023-02-11T01:44:34.955Z,34.75
2023-02-11T01:49:35.169Z,37.13
2023-02-11T01:54:55.708Z,34.47
2023-02-11T02:00:26.476Z,34.88
2023-02-11T02:05:32.236Z,36.78
2023-02-11T02:10:29.100Z,35.85
2023-02-11T02:15:29.177Z,34.35
2023-02-11T02:20:55.384Z,35.95
2023-02-11T02:26:22.570Z,38.35
2023-02-11T02:31:40.745Z,35.85
2023-02-11T02:36:43.769Z,36.00
2023-02-11T02:41:41.948Z,35.83
2023-02-11T02:46:38.354Z,33.83
2023-02-11T02:52:12.599Z,32.97
2023-02-11T02:57:27.276Z,35.33
2023-02-11T03:02:35.377Z,36.95
2023-02-11T03:07:45.125Z,35.30
2023-02-11T03:12:44.477Z,35.60
2023-02-11T03:17:44.799Z,35.85
2023-02-11T03:22:50.809Z,34.60
2023-02-11T03:28:06.242Z,35.22
2023-02-11T03:33:24.793Z,34.53
2023-02-11T03:38:34.692Z,32.72
2023-02-11T03:43:35.782Z,34.60
2023-02-11T03:48:37.095Z,34.05
2023-02-11T03:53:34.156Z,33.03
2023-02-11T03:58:30.722Z,32.00
2023-02-11T04:03:27.079Z,28.67
2023-02-11T04:08:23.453Z,31.02
2023-02-11T04:13:19.764Z,28.98
2023-02-11T04:18:16.105Z,30.23
2023-02-11T04:23:12.610Z,28.63
2023-02-11T04:28:08.984Z,29.02
2023-02-11T04:33:05.322Z,29.52
2023-02-11T04:38:02.370Z,28.50
2023-02-11T04:42:58.719Z,28.05
2023-02-11T04:47:55.001Z,28.02
2023-02-11T04:52:51.309Z,28.73
2023-02-11T04:57:47.660Z,27.67
2023-02-11T05:02:44.079Z,27.67
2023-02-11T05:07:41.033Z,26.27
2023-02-11T05:12:37.402Z,25.60
2023-02-11T05:17:33.704Z,27.88
2023-02-11T05:22:30.174Z,28.33
2023-02-11T05:27:26.452Z,26.75
2023-02-11T05:32:23.060Z,24.85
2023-02-11T05:37:19.567Z,25.63
2023-02-11T05:42:16.058Z,25.70
2023-02-11T05:47:12.455Z,25.92
2023-02-11T05:52:08.825Z,25.75
2023-02-11T05:57:05.237Z,28.17
2023-02-11T06:02:02.364Z,25.73
2023-02-11T06:06:58.720Z,27.75
2023-02-11T06:11:55.173Z,25.85
2023-02-11T06:16:51.622Z,27.20
2023-02-11T06:21:48.073Z,27.60
2023-02-11T06:26:44.479Z,28.55
2023-02-11T06:31:41.127Z,29.05
2023-02-11T06:36:39.848Z,29.35
2023-02-11T06:41:36.419Z,27.95
2023-02-11T06:46:33.045Z,28.73
2023-02-11T06:51:29.487Z,27.83
2023-02-11T06:56:27.497Z,29.65
2023-02-11T07:01:26.259Z,28.87
2023-02-11T07:11:24.631Z,31.23
2023-02-11T07:16:21.241Z,30.77
2023-02-11T07:21:20.692Z,31.70
2023-02-11T07:26:19.753Z,33.83
2023-02-11T07:31:21.983Z,33.35
2023-02-11T07:36:18.528Z,35.45
2023-02-11T07:41:18.211Z,35.53
2023-02-11T07:46:21.675Z,34.03
2023-02-11T07:51:23.325Z,36.90
2023-02-11T07:56:21.188Z,35.70
2023-02-11T08:01:22.419Z,38.27
2023-02-11T08:06:21.030Z,36.75
2023-02-11T08:11:28.262Z,38.83
2023-02-11T08:16:27.649Z,37.42
2023-02-11T08:21:24.341Z,35.45
2023-02-11T08:26:22.912Z,37.15
2023-02-11T08:31:25.262Z,40.90
2023-02-11T08:36:24.843Z,36.53
2023-02-11T08:41:21.294Z,39.90
2023-02-11T08:46:19.654Z,39.47
2023-02-11T08:51:19.406Z,41.63
2023-02-11T08:56:17.345Z,40.45
2023-02-11T09:01:17.203Z,42.37
2023-02-11T09:06:14.270Z,46.70
2023-02-11T09:11:11.033Z,43.83
2023-02-11T09:16:08.659Z,42.47
2023-02-11T09:21:07.647Z,40.80
2023-02-11T09:26:09.214Z,40.17
2023-02-11T09:31:07.703Z,42.00
2023-02-11T09:36:06.047Z,42.17
2023-02-11T09:41:07.509Z,40.75
2023-02-11T09:46:04.945Z,44.50
2023-02-11T09:51:03.962Z,42.17
2023-02-11T09:56:02.771Z,42.90
2023-02-11T10:06:19.660Z,43.58
2023-02-11T10:11:32.685Z,40.13
2023-02-11T10:17:10.357Z,41.28
2023-02-11T10:22:19.981Z,40.05
2023-02-11T10:27:20.278Z,40.03
2023-02-11T10:32:44.061Z,37.72
2023-02-11T10:37:42.394Z,39.30
2023-02-11T10:42:44.224Z,38.33
2023-02-11T10:47:41.548Z,40.70
2023-02-11T10:52:37.862Z,39.47
2023-02-11T10:57:58.995Z,37.35
2023-02-11T11:02:58.281Z,39.00
2023-02-11T11:08:04.535Z,41.28
2023-02-11T11:13:01.031Z,37.88
2023-02-11T11:18:21.512Z,42.65
2023-02-11T11:23:22.719Z,42.10
2023-02-11T11:28:24.322Z,42.50
2023-02-11T11:33:27.974Z,42.22
2023-02-11T11:38:24.584Z,43.78
2023-02-11T11:43:23.232Z,44.15
2023-02-11T11:53:27.482Z,37.03
2023-02-11T11:58:23.981Z,40.83
2023-02-11T12:04:02.483Z,39.30
2023-02-11T12:14:37.981Z,39.20
2023-02-11T12:19:56.483Z,37.90
2023-02-11T12:25:30.831Z,38.00
2023-02-11T12:30:58.089Z,37.10
2023-02-11T12:36:42.219Z,34.63
2023-02-11T12:42:03.218Z,35.00
2023-02-11T12:47:22.323Z,32.38
2023-02-11T12:53:00.172Z,31.42
2023-02-11T12:57:59.536Z,28.65
2023-02-11T13:03:23.930Z,29.48
2023-02-11T13:08:33.616Z,28.17
2023-02-11T13:13:38.181Z,29.48
2023-02-11T13:18:57.470Z,29.73
2023-02-11T13:24:09.584Z,27.80
2023-02-11T13:29:30.435Z,29.50
2023-02-11T13:34:56.581Z,25.85
2023-02-11T13:40:20.230Z,27.27
2023-02-11T13:45:42.983Z,25.77
2023-02-11T13:50:50.652Z,25.88
2023-02-11T13:55:51.274Z,25.70
2023-02-11T14:00:50.999Z,26.50
2023-02-11T14:06:29.383Z,26.38
2023-02-11T14:11:41.518Z,25.20
2023-02-11T14:17:06.980Z,25.73
2023-02-11T14:22:05.949Z,26.27
2023-02-11T14:27:15.990Z,25.50
2023-02-11T14:32:38.569Z,25.88
2023-02-11T14:37:50.929Z,24.90
2023-02-11T14:42:47.725Z,24.02
2023-02-11T14:47:52.657Z,23.08
2023-02-11T14:52:49.714Z,23.77
2023-02-11T14:57:49.407Z,25.00
2023-02-11T15:02:45.959Z,23.40
2023-02-11T15:07:51.363Z,23.77
2023-02-11T15:12:49.379Z,23.33
2023-02-11T15:17:46.185Z,23.00
2023-02-11T15:22:46.108Z,22.63
2023-02-11T15:27:48.372Z,22.70
2023-02-11T15:32:45.168Z,21.33
2023-02-11T15:37:41.679Z,23.35
2023-02-11T15:42:51.875Z,23.30
2023-02-11T15:47:52.058Z,22.08
2023-02-11T15:52:49.724Z,21.25
2023-02-11T15:57:53.010Z,21.23
2023-02-11T16:02:50.901Z,20.83
2023-02-11T16:07:50.357Z,21.30
2023-02-11T16:13:05.829Z,22.23
2023-02-11T16:18:12.967Z,21.33
2023-02-11T16:23:21.751Z,21.65
2023-02-11T16:28:18.146Z,22.30
2023-02-11T16:33:14.542Z,21.10
2023-02-11T16:38:11.136Z,23.20
2023-02-11T16:43:08.216Z,22.60
2023-02-11T16:48:08.798Z,22.50
2023-02-11T16:53:06.398Z,22.98
2023-02-11T16:58:02.800Z,17.00
2023-02-11T17:02:59.248Z,23.02
2023-02-11T17:07:56.195Z,23.33
2023-02-11T17:12:53.420Z,21.20
2023-02-11T17:17:49.811Z,21.75
2023-02-11T17:22:46.157Z,22.10
2023-02-11T17:27:42.647Z,22.90
2023-02-11T17:32:38.961Z,22.27
2023-02-11T17:37:35.276Z,23.27
2023-02-11T17:42:31.586Z,22.50
2023-02-11T17:47:28.038Z,22.42
2023-02-11T17:52:26.537Z,23.52
2023-02-11T17:57:22.858Z,22.90
2023-02-11T18:02:19.349Z,22.85
2023-02-11T18:07:15.756Z,23.45
2023-02-11T18:12:12.107Z,22.75
2023-02-11T18:17:08.675Z,23.65
2023-02-11T18:22:05.040Z,23.65
2023-02-11T18:27:01.723Z,23.55
2023-02-11T18:31:58.247Z,25.40
2023-02-11T18:36:54.619Z,25.15
2023-02-11T18:41:54.437Z,25.80
2023-02-11T18:46:52.020Z,25.50
2023-02-11T18:51:48.366Z,27.33
2023-02-11T18:56:44.908Z,26.40
2023-02-11T19:01:43.357Z,25.80
2023-02-11T19:06:39.863Z,23.13
2023-02-11T19:11:49.865Z,25.75
2023-02-11T19:16:47.575Z,25.88
2023-02-11T19:21:45.467Z,27.83
2023-02-11T19:26:42.918Z,25.73
2023-02-11T19:31:39.430Z,27.85
2023-02-11T19:36:36.051Z,27.77
2023-02-11T19:41:33.640Z,26.95
2023-02-11T19:46:33.230Z,25.77
2023-02-11T19:51:30.803Z,26.00
2023-02-11T19:56:30.535Z,26.15
2023-02-11T20:01:27.002Z,25.90
2023-02-11T20:06:29.656Z,25.42
2023-02-11T20:11:28.179Z,26.83
2023-02-11T20:21:41.330Z,25.30
2023-02-11T20:26:40.858Z,25.58
2023-02-11T20:31:37.390Z,24.77
2023-02-11T20:36:35.679Z,26.50
2023-02-11T20:41:34.323Z,24.75
2023-02-11T20:51:31.667Z,24.60
2023-02-11T21:01:30.003Z,23.77
2023-02-11T21:06:31.146Z,26.65
2023-02-11T21:11:27.815Z,24.10
2023-02-11T21:16:24.478Z,24.17
2023-02-11T21:21:21.371Z,23.15
2023-02-11T21:26:18.434Z,25.30
2023-02-11T21:31:21.837Z,22.90
2023-02-11T21:36:18.696Z,25.42
2023-02-11T21:41:16.061Z,24.55
2023-02-11T21:46:14.589Z,24.60
2023-02-11T21:51:24.729Z,25.58
2023-02-11T21:56:21.245Z,25.95
2023-02-11T22:01:21.428Z,25.73
2023-02-11T22:06:23.396Z,26.13
2023-02-11T22:11:20.529Z,25.55
2023-02-11T22:16:17.014Z,25.40
2023-02-11T22:21:17.606Z,25.98
2023-02-11T22:26:19.437Z,25.33
2023-02-11T22:31:22.158Z,24.25
2023-02-11T22:36:22.237Z,23.73
2023-02-11T22:41:19.125Z,25.35
2023-02-11T22:46:18.814Z,26.30
2023-02-11T22:51:19.313Z,24.73
2023-02-11T22:56:16.032Z,24.67
2023-02-11T23:01:13.232Z,26.20
2023-02-11T23:06:10.675Z,26.17
2023-02-11T23:11:12.256Z,26.08
2023-02-11T23:16:12.745Z,27.33
2023-02-11T23:21:13.427Z,24.60
2023-02-11T23:26:15.284Z,25.77
2023-02-11T23:31:15.662Z,26.52
2023-02-11T23:36:12.618Z,24.77
2023-02-11T23:41:09.147Z,25.05
2023-02-11T23:46:06.226Z,26.75
2023-02-11T23:51:03.657Z,25.77
2023-02-11T23:56:00.067Z,27.08
